createdAt,value
2022-12-27T00:00:15.235Z,99754.90
2022-12-27T00:02:48.547Z,99737.37
2022-12-27T00:05:02.876Z,99724.34
2022-12-27T00:07:16.427Z,99708.70
2022-12-27T00:09:30.123Z,99692.89
2022-12-27T00:11:43.579Z,99676.50
2022-12-27T00:13:56.853Z,99662.08
2022-12-27T00:16:15.356Z,99646.95
2022-12-27T00:18:28.812Z,99625.88
2022-12-27T00:20:42.587Z,99611.54
2022-12-27T00:22:56.009Z,99597.03
2022-12-27T00:25:09.910Z,99585.72
2022-12-27T00:27:23.469Z,99560.23
2022-12-27T00:29:37.149Z,99545.27
2022-12-27T00:31:50.506Z,99531.55
2022-12-27T00:34:06.950Z,99510.90
2022-12-27T00:36:22.503Z,99500.52
2022-12-27T00:38:37.344Z,99481.79
2022-12-27T00:40:50.788Z,99462.70
2022-12-27T00:43:04.228Z,99454.36
2022-12-27T00:45:18.287Z,99441.97
2022-12-27T00:47:31.612Z,99425.11
2022-12-27T00:49:44.900Z,99414.42
2022-12-27T00:51:58.130Z,99405.98
2022-12-27T00:54:11.503Z,99392.84
2022-12-27T00:56:26.888Z,99378.32
2022-12-27T00:58:40.961Z,99363.63
2022-12-27T01:00:54.506Z,99354.39
2022-12-27T01:03:07.839Z,99343.64
2022-12-27T01:05:21.286Z,99330.78
2022-12-27T01:07:35.678Z,99316.70
2022-12-27T01:09:48.899Z,99298.63
2022-12-27T01:12:02.159Z,99285.55
2022-12-27T01:14:16.735Z,99273.48
2022-12-27T01:16:31.304Z,99252.67
2022-12-27T01:18:45.505Z,99233.50
2022-12-27T01:20:58.865Z,99205.35
2022-12-27T01:23:12.157Z,99170.49
2022-12-27T01:25:25.485Z,99163.31
2022-12-27T01:27:38.815Z,99138.20
2022-12-27T01:29:52.114Z,99131.39
2022-12-27T01:32:05.537Z,99129.77
2022-12-27T01:34:19.318Z,99120.69
2022-12-27T01:36:34.589Z,99107.45
2022-12-27T01:38:49.766Z,99097.42
2022-12-27T01:41:24.974Z,99088.65
2022-12-27T01:43:45.605Z,99083.66
2022-12-27T01:45:59.290Z,99072.79
2022-12-27T01:48:19.735Z,99050.89
2022-12-27T01:50:38.485Z,99029.48
2022-12-27T01:52:56.263Z,99004.98
2022-12-27T01:55:16.390Z,98992.37
2022-12-27T01:57:29.852Z,98967.06
2022-12-27T01:59:44.161Z,98949.27
2022-12-27T02:01:57.790Z,98938.33
2022-12-27T02:04:14.582Z,98917.36
2022-12-27T02:06:29.518Z,98897.59
2022-12-27T02:08:49.979Z,98878.80
2022-12-27T02:11:04.170Z,98860.23
2022-12-27T02:13:18.356Z,98854.05
2022-12-27T02:15:31.646Z,98829.78
2022-12-27T02:17:45.216Z,98829.38
2022-12-27T02:20:04.641Z,98824.17
2022-12-27T02:22:58.803Z,98819.58
2022-12-27T02:25:26.791Z,98803.14
2022-12-27T02:28:04.050Z,98797.44
2022-12-27T02:30:19.069Z,98784.77
2022-12-27T02:32:39.277Z,98762.47
2022-12-27T02:35:02.091Z,98774.40
2022-12-27T02:37:17.261Z,98763.14
2022-12-27T02:39:33.126Z,98756.23
2022-12-27T02:42:05.139Z,98737.38
2022-12-27T02:44:33.978Z,98728.48
2022-12-27T02:47:13.513Z,98713.95
2022-12-27T02:49:51.512Z,98700.54
2022-12-27T02:52:32.279Z,98682.61
2022-12-27T02:55:14.957Z,98676.16
2022-12-27T02:57:35.571Z,98676.16
2022-12-27T03:00:25.025Z,98675.50
2022-12-27T03:03:04.631Z,98665.21
2022-12-27T03:05:27.937Z,98641.34
2022-12-27T03:07:46.989Z,98630.54
2022-12-27T03:10:27.481Z,98621.24
2022-12-27T03:13:14.971Z,98608.48
2022-12-27T03:15:56.535Z,98587.75
2022-12-27T03:18:16.917Z,98587.28
2022-12-27T03:20:47.726Z,98577.67
2022-12-27T03:23:21.444Z,98578.70
2022-12-27T03:25:37.797Z,98555.33
2022-12-27T03:28:13.132Z,98547.06
2022-12-27T03:30:43.259Z,98549.64
2022-12-27T03:33:16.812Z,98552.48
2022-12-27T03:35:34.679Z,98541.98
2022-12-27T03:38:08.389Z,98514.70
2022-12-27T03:40:28.456Z,98519.84
2022-12-27T03:43:02.528Z,98497.51
2022-12-27T03:45:16.307Z,98480.65
2022-12-27T03:47:34.214Z,98473.16
2022-12-27T03:49:52.903Z,98444.16
2022-12-27T03:52:12.478Z,98455.10
2022-12-27T03:54:31.334Z,98465.59
2022-12-27T03:56:45.133Z,98451.86
2022-12-27T03:59:00.265Z,98450.66
2022-12-27T04:01:13.630Z,98433.00
2022-12-27T04:03:26.920Z,98468.15
2022-12-27T04:05:40.183Z,98434.60
2022-12-27T04:08:10.372Z,98435.96
2022-12-27T04:10:40.711Z,98420.73
2022-12-27T04:13:10.316Z,98405.38
2022-12-27T04:15:40.109Z,98412.92
2022-12-27T04:18:09.897Z,98397.55
2022-12-27T04:20:39.541Z,98387.31
2022-12-27T04:23:08.917Z,98390.12
2022-12-27T04:25:39.809Z,98370.80
2022-12-27T04:28:09.878Z,98385.17
2022-12-27T04:30:39.595Z,98387.49
2022-12-27T04:33:09.265Z,98375.75
2022-12-27T04:35:22.522Z,98383.69
2022-12-27T04:37:35.841Z,98386.20
2022-12-27T04:40:12.820Z,98389.77
2022-12-27T04:42:42.887Z,98373.04
2022-12-27T04:45:15.388Z,98391.73
2022-12-27T04:47:43.636Z,98367.82
2022-12-27T04:50:13.445Z,98345.79
2022-12-27T04:52:44.391Z,98369.55
2022-12-27T04:55:00.676Z,98388.77
2022-12-27T04:57:16.924Z,98387.91
2022-12-27T04:59:46.610Z,98387.71
2022-12-27T05:02:09.356Z,98379.67
2022-12-27T05:04:22.660Z,98362.93
2022-12-27T05:06:35.949Z,98361.98
2022-12-27T05:09:05.813Z,98368.91
2022-12-27T05:11:35.539Z,98358.01
2022-12-27T08:30:28.427Z,98235.89
2022-12-27T08:32:43.956Z,98212.70
2022-12-27T08:35:12.131Z,98211.41
2022-12-27T08:37:33.314Z,98213.34
2022-12-27T08:39:47.585Z,98188.52
2022-12-27T08:42:03.574Z,98178.23
2022-12-27T08:44:18.072Z,98166.60
2022-12-27T08:46:32.630Z,98160.02
2022-12-27T08:48:46.985Z,98139.71
2022-12-27T08:51:01.434Z,98132.95
2022-12-27T08:53:18.231Z,98123.35
2022-12-27T08:55:33.391Z,98136.17
2022-12-27T08:57:48.711Z,98116.02
2022-12-27T09:00:26.462Z,98113.36
2022-12-27T09:02:40.824Z,98098.05
2022-12-27T09:04:56.595Z,98098.34
2022-12-27T09:07:10.918Z,98109.86
2022-12-27T09:09:25.392Z,98087.82
2022-12-27T09:11:39.764Z,98088.84
2022-12-27T09:13:54.738Z,98077.53
2022-12-27T09:16:13.907Z,98057.94
2022-12-27T09:18:28.466Z,98063.80
2022-12-27T09:20:42.164Z,98060.28
2022-12-27T09:22:56.832Z,98041.18
2022-12-27T09:25:13.649Z,98042.90
2022-12-27T09:27:27.714Z,98055.45
2022-12-27T09:29:46.489Z,98041.34
2022-12-27T09:32:02.540Z,98029.40
2022-12-27T09:34:16.347Z,98039.89
2022-12-27T09:36:31.724Z,98020.48
2022-12-27T09:38:46.904Z,98021.15
2022-12-27T09:41:04.140Z,97997.43
2022-12-27T09:43:27.192Z,97995.19
2022-12-27T09:45:48.533Z,97984.09
2022-12-27T09:48:07.562Z,97979.77
2022-12-27T09:50:23.746Z,97980.52
2022-12-27T09:52:41.168Z,98001.09
2022-12-27T09:55:05.324Z,97990.01
2022-12-27T09:57:27.339Z,97991.53
2022-12-27T09:59:50.108Z,97985.66
2022-12-27T10:02:05.615Z,97964.34
2022-12-27T10:04:21.585Z,97975.31
2022-12-27T10:07:13.256Z,97962.27
2022-12-27T10:09:38.676Z,97961.95
2022-12-27T10:12:00.877Z,97965.33
2022-12-27T10:14:34.057Z,97993.05
2022-12-27T10:16:58.029Z,97989.31
2022-12-27T10:19:34.689Z,97997.16
2022-12-27T10:21:59.713Z,97994.45
2022-12-27T10:24:22.726Z,97994.77
2022-12-27T10:26:36.899Z,97978.39
2022-12-27T10:28:56.847Z,97962.77
2022-12-27T10:31:17.929Z,97963.57
2022-12-27T10:33:35.898Z,97942.61
2022-12-27T10:35:50.577Z,97947.81
2022-12-27T10:38:04.754Z,97910.17
2022-12-27T10:40:26.821Z,97908.98
2022-12-27T10:42:49.802Z,97911.12
2022-12-27T10:45:35.504Z,97918.09
2022-12-27T10:47:50.662Z,97897.93
2022-12-27T10:50:17.625Z,97888.14
2022-12-27T10:52:35.262Z,97894.11
2022-12-27T10:54:58.822Z,97905.72
2022-12-27T10:57:22.457Z,97898.18
2022-12-27T10:59:38.380Z,97889.50
2022-12-27T11:01:53.378Z,97879.11
2022-12-27T11:04:21.843Z,97889.40
2022-12-27T11:06:40.083Z,97882.91
2022-12-27T11:08:56.164Z,97883.05
2022-12-27T11:11:23.759Z,97886.80
2022-12-27T11:13:39.091Z,97886.23
2022-12-27T11:16:02.356Z,97903.84
2022-12-27T11:18:22.982Z,97908.81
2022-12-27T11:20:42.005Z,97909.79
2022-12-27T11:22:59.942Z,97892.38
2022-12-27T11:25:19.612Z,97881.06
2022-12-27T11:27:34.997Z,97877.33
2022-12-27T11:29:51.500Z,97880.57
2022-12-27T11:32:13.738Z,97881.98
2022-12-27T11:34:33.697Z,97879.89
2022-12-27T11:36:55.171Z,97873.43
2022-12-27T11:39:11.096Z,97864.79
2022-12-27T11:41:34.264Z,97856.67
2022-12-27T11:43:53.824Z,97850.13
2022-12-27T11:46:17.680Z,97841.70
2022-12-27T11:48:37.181Z,97838.27
2022-12-27T11:51:46.322Z,97830.59
2022-12-27T11:54:31.135Z,97826.95
2022-12-27T11:56:52.860Z,97827.64
2022-12-27T11:59:46.328Z,97817.15
2022-12-27T12:02:37.000Z,97816.91
2022-12-27T12:05:25.009Z,97835.58
2022-12-27T12:07:58.191Z,97814.39
2022-12-27T12:10:25.559Z,97803.25
2022-12-27T12:13:35.353Z,97796.21
2022-12-27T12:16:20.691Z,97791.30
2022-12-27T12:18:53.692Z,97778.98
2022-12-27T12:21:27.348Z,97790.70
2022-12-27T12:23:50.296Z,97780.45
2022-12-27T12:26:24.570Z,97781.23
2022-12-27T12:29:11.349Z,97776.21
2022-12-27T12:31:43.823Z,97765.14
2022-12-27T12:34:16.192Z,97756.08
2022-12-27T12:37:02.205Z,97756.27
2022-12-27T12:39:24.523Z,97743.80
2022-12-27T12:42:14.311Z,97733.37
2022-12-27T12:45:06.211Z,97746.60
2022-12-27T12:47:34.505Z,97741.82
2022-12-27T12:50:26.250Z,97721.84
2022-12-27T12:53:00.061Z,97724.06
2022-12-27T12:55:40.024Z,97715.64
2022-12-27T12:58:08.075Z,97711.55
2022-12-27T13:00:37.739Z,97707.64
2022-12-27T13:03:36.297Z,97706.23
2022-12-27T13:05:56.778Z,97703.80
2022-12-27T13:08:19.787Z,97697.88
2022-12-27T13:11:01.299Z,97696.79
2022-12-27T13:13:22.729Z,97693.25
2022-12-27T13:15:46.381Z,97681.25
2022-12-27T13:18:12.118Z,97674.68
2022-12-27T13:20:53.753Z,97691.02
2022-12-27T13:23:16.030Z,97683.10
2022-12-27T13:25:40.690Z,97671.98
2022-12-27T13:28:01.829Z,97658.49
2022-12-27T13:30:27.421Z,97653.98
2022-12-27T13:32:58.674Z,97674.16
2022-12-27T13:35:35.568Z,97683.27
2022-12-27T13:38:08.705Z,97676.34
2022-12-27T13:40:49.274Z,97666.75
2022-12-27T13:43:19.661Z,97668.30
2022-12-27T13:45:48.895Z,97668.45
2022-12-27T13:48:39.152Z,97660.02
2022-12-27T13:51:07.820Z,97658.55
2022-12-27T13:53:53.618Z,97664.11
2022-12-27T13:56:52.918Z,97668.03
2022-12-27T13:59:13.816Z,97677.44
2022-12-27T14:01:52.725Z,97674.59
2022-12-27T14:04:45.678Z,97680.14
2022-12-27T14:07:21.299Z,97686.36
2022-12-27T14:10:00.003Z,97669.27
2022-12-27T14:12:42.140Z,97685.48
2022-12-27T14:14:59.235Z,97683.92
2022-12-27T14:17:27.634Z,97696.02
2022-12-27T14:20:19.520Z,97694.27
2022-12-27T14:22:57.498Z,97694.47
2022-12-27T14:25:47.384Z,97688.18
2022-12-27T14:28:32.671Z,97683.16
2022-12-27T14:31:15.930Z,97688.27
2022-12-27T14:34:02.312Z,97708.91
2022-12-27T14:36:54.137Z,97702.88
2022-12-27T14:39:54.933Z,97714.20
2022-12-27T14:42:35.794Z,97723.18
2022-12-27T14:45:39.487Z,97725.94
2022-12-27T14:48:36.313Z,97708.17
2022-12-27T14:51:59.988Z,97724.60
2022-12-27T14:54:59.364Z,97737.23
2022-12-27T14:57:30.134Z,97741.38
2022-12-27T14:59:58.795Z,97749.11
2022-12-27T15:02:34.135Z,97755.55
2022-12-27T15:05:16.095Z,97773.77
2022-12-27T15:08:07.446Z,97780.10
2022-12-27T15:10:41.684Z,97796.61
2022-12-27T15:13:02.244Z,97804.08
2022-12-27T15:15:37.937Z,97809.20
2022-12-27T15:18:15.711Z,97824.29
2022-12-27T15:20:45.214Z,97826.60
2022-12-27T15:23:12.107Z,97831.64
2022-12-27T15:25:35.462Z,97840.11
2022-12-27T15:27:58.049Z,97856.55
2022-12-27T15:30:40.149Z,97858.45
2022-12-27T15:33:03.471Z,97862.17
2022-12-27T15:35:51.368Z,97859.19
2022-12-27T15:38:13.522Z,97859.33
2022-12-27T15:40:46.780Z,97866.52
2022-12-27T15:43:08.561Z,97870.21
2022-12-27T15:45:42.365Z,97880.96
2022-12-27T15:48:28.118Z,97889.10
2022-12-27T15:50:57.844Z,97888.17
2022-12-27T15:53:43.075Z,97886.05
2022-12-27T15:56:21.011Z,97887.93
2022-12-27T15:58:35.394Z,97897.05
2022-12-27T16:01:11.420Z,97892.13
2022-12-27T16:03:40.743Z,97909.19
2022-12-27T16:05:58.742Z,97901.14
2022-12-27T16:08:43.154Z,97895.08
2022-12-27T16:10:59.288Z,97905.67
2022-12-27T16:13:41.502Z,97906.86
2022-12-27T16:15:59.399Z,97897.19
2022-12-27T16:18:34.786Z,97886.23
2022-12-27T16:21:01.228Z,97881.75
2022-12-27T16:23:18.872Z,97878.77
2022-12-27T16:25:41.501Z,97894.10
2022-12-27T16:28:02.360Z,97874.14
2022-12-27T16:30:36.515Z,97881.27
2022-12-27T16:32:57.938Z,97892.91
2022-12-27T16:35:20.441Z,97887.65
2022-12-27T16:37:47.140Z,97883.69
2022-12-27T16:40:24.922Z,97873.02
2022-12-27T16:43:19.223Z,97856.12
2022-12-27T16:45:47.149Z,97864.75
2022-12-27T16:48:21.218Z,97851.62
2022-12-27T16:50:50.378Z,97852.66
2022-12-27T16:53:22.445Z,97838.23
2022-12-27T16:56:02.867Z,97834.30
2022-12-27T16:58:39.551Z,97839.14
2022-12-27T17:00:55.750Z,97832.80
2022-12-27T17:03:38.296Z,97828.27
2022-12-27T17:06:29.948Z,97832.27
2022-12-27T17:08:27.403Z,97828.21
2022-12-27T17:11:12.057Z,97835.59
2022-12-27T17:13:31.711Z,97833.33
2022-12-27T17:15:49.732Z,97823.77
2022-12-27T17:18:26.125Z,97844.42
2022-12-27T17:20:42.240Z,97842.86
2022-12-27T17:23:01.427Z,97845.55
2022-12-27T17:25:24.203Z,97827.23
2022-12-27T17:27:50.665Z,97823.27
2022-12-27T17:30:21.674Z,97825.33
2022-12-27T17:32:48.944Z,97841.47
2022-12-27T17:35:15.284Z,97842.69
2022-12-27T17:37:35.689Z,97858.48
2022-12-27T17:40:06.880Z,97863.55
2022-12-27T17:42:45.225Z,97862.67
2022-12-27T17:45:22.836Z,97881.48
2022-12-27T17:48:04.039Z,97878.99
2022-12-27T17:50:25.156Z,97903.99
2022-12-27T17:52:55.835Z,97934.46
2022-12-27T17:55:38.974Z,97948.39
2022-12-27T17:58:01.489Z,97972.73
2022-12-27T18:00:28.299Z,97991.69
2022-12-27T18:02:43.666Z,98009.38
2022-12-27T18:05:00.931Z,98022.33
2022-12-27T18:07:18.042Z,98037.27
2022-12-27T18:09:45.622Z,98044.05
2022-12-27T18:12:00.737Z,98058.80
2022-12-27T18:14:19.911Z,98066.16
2022-12-27T18:16:41.262Z,98074.06
2022-12-27T18:19:01.608Z,98080.31
2022-12-27T18:21:29.553Z,98092.13
2022-12-27T18:23:50.298Z,98089.86
2022-12-27T18:26:13.800Z,98103.08
2022-12-27T18:28:33.352Z,98112.72
2022-12-27T18:30:51.750Z,98117.53
2022-12-27T18:33:08.028Z,98121.11
2022-12-27T18:35:26.460Z,98127.88
2022-12-27T18:37:42.685Z,98136.39
2022-12-27T18:39:59.621Z,98129.45
2022-12-27T18:42:22.964Z,98130.24
2022-12-27T18:44:44.263Z,98134.15
2022-12-27T18:47:01.444Z,98133.03
2022-12-27T18:49:29.675Z,98137.04
2022-12-27T18:51:45.666Z,98136.98
2022-12-27T18:54:01.038Z,98128.88
2022-12-27T18:56:31.800Z,98136.98
2022-12-27T18:59:02.143Z,98134.61
2022-12-27T19:01:40.893Z,98130.55
2022-12-27T19:04:22.115Z,98133.80
2022-12-27T19:06:37.455Z,98124.09
2022-12-27T19:08:54.880Z,98114.86
2022-12-27T19:11:09.954Z,98125.08
2022-12-27T19:13:32.273Z,98121.10
2022-12-27T19:15:47.460Z,98108.91
2022-12-27T19:18:06.643Z,98120.84
2022-12-27T19:20:27.936Z,98117.30
2022-12-27T19:22:54.432Z,98116.43
2022-12-27T19:25:09.662Z,98103.77
2022-12-27T19:27:29.882Z,98103.42
2022-12-27T19:29:55.677Z,98090.61
2022-12-27T19:32:13.760Z,98083.38
2022-12-27T19:34:30.890Z,98074.71
2022-12-27T19:36:47.932Z,98080.10
2022-12-27T19:39:02.913Z,98078.11
2022-12-27T19:41:18.307Z,98071.09
2022-12-27T19:43:34.089Z,98072.36
2022-12-27T19:45:48.291Z,98068.84
2022-12-27T19:48:02.890Z,98056.70
2022-12-27T19:50:19.154Z,98058.73
2022-12-27T19:52:35.241Z,98061.10
2022-12-27T19:54:49.172Z,98053.65
2022-12-27T19:57:03.560Z,98047.05
2022-12-27T19:59:25.986Z,98054.64
2022-12-27T20:01:41.087Z,98049.60
2022-12-27T20:03:54.542Z,98051.91
2022-12-27T20:06:12.669Z,98050.20
2022-12-27T20:08:34.611Z,98052.15
2022-12-27T20:10:49.138Z,98054.73
2022-12-27T20:13:02.784Z,98056.69
2022-12-27T20:15:17.160Z,98061.20
2022-12-27T20:17:35.537Z,98055.41
2022-12-27T20:19:52.831Z,98072.65
2022-12-27T20:22:06.503Z,98079.96
2022-12-27T20:24:22.433Z,98107.31
2022-12-27T20:26:36.356Z,98115.81
2022-12-27T20:28:51.052Z,98123.52
2022-12-27T20:31:08.675Z,98140.36
2022-12-27T20:33:24.601Z,98158.48
2022-12-27T20:35:40.317Z,98174.63
2022-12-27T20:37:54.811Z,98194.77
2022-12-27T20:40:12.764Z,98207.29
2022-12-27T20:42:27.737Z,98229.77
2022-12-27T20:44:43.430Z,98255.84
2022-12-27T20:46:57.878Z,98285.76
2022-12-27T20:49:11.893Z,98306.36
2022-12-27T20:51:26.440Z,98331.23
2022-12-27T20:53:40.963Z,98360.52
2022-12-27T20:56:04.137Z,98384.32
2022-12-27T20:58:17.986Z,98410.62
2022-12-27T21:00:32.729Z,98440.55
2022-12-27T21:02:49.221Z,98460.69
2022-12-27T21:05:05.463Z,98483.42
2022-12-27T21:07:20.746Z,98506.74
2022-12-27T21:09:35.262Z,98527.26
2022-12-27T21:11:54.151Z,98565.56
2022-12-27T21:14:08.902Z,98583.86
2022-12-27T21:16:24.434Z,98611.36
2022-12-27T21:18:40.133Z,98628.69
2022-12-27T21:20:54.261Z,98648.98
2022-12-27T21:23:07.633Z,98677.90
